Time;durP1;ratioP1;P1;durP2;ratioP2;P2;SDS_P1;SDS_P2;PMS_P1;PMS_P2;Temp;Humidity;BMP_temperature;BMP_pressure;BME280_temperature;BME280_humidity;BME280_pressure;Samples;Min_cycle;Max_cycle;Signal;HPM_P1;HPM_P2
2021/12/10 00:01:49;;;;;;;2.90;2.67;;;4.50;99.90;;;;;;5095674;28;20443;-58
2021/12/10 00:04:19;;;;;;;5.23;3.27;;;4.40;99.90;;;;;;5096458;28;20435;-59
2021/12/10 00:06:50;;;;;;;5.67;2.77;;;4.30;99.90;;;;;;5095682;28;20539;-58
2021/12/10 00:09:22;;;;;;;3.73;3.10;;;4.40;99.90;;;;;;5096450;28;20424;-58
2021/12/10 00:11:52;;;;;;;3.40;2.77;;;4.30;99.90;;;;;;5094450;28;20945;-58
2021/12/10 00:14:26;;;;;;;7.90;4.03;;;4.30;99.90;;;;;;5095506;28;20428;-58
2021/12/10 00:16:54;;;;;;;3.80;3.43;;;4.30;99.90;;;;;;5095680;28;20427;-58
2021/12/10 00:19:30;;;;;;;3.40;2.70;;;4.20;99.90;;;;;;5095007;28;20486;-58
2021/12/10 00:21:59;;;;;;;6.33;3.30;;;4.20;99.90;;;;;;5095098;28;20804;-58
2021/12/10 00:24:30;;;;;;;5.63;3.60;;;4.20;99.90;;;;;;5095076;28;20458;-57
2021/12/10 00:26:59;;;;;;;4.90;2.30;;;4.30;99.90;;;;;;5094989;28;20779;-58
2021/12/10 00:29:27;;;;;;;5.50;3.00;;;4.30;99.90;;;;;;5095073;28;20474;-58
2021/12/10 00:32:01;;;;;;;3.27;2.83;;;4.30;99.90;;;;;;5094828;28;20944;-58
2021/12/10 00:34:33;;;;;;;4.20;2.70;;;4.20;99.90;;;;;;5095186;28;20809;-58
2021/12/10 00:37:03;;;;;;;4.00;3.10;;;4.10;99.90;;;;;;5095050;28;20458;-58
2021/12/10 00:39:34;;;;;;;10.07;3.20;;;4.10;99.90;;;;;;5094567;28;20936;-57
2021/12/10 00:42:03;;;;;;;5.63;2.73;;;4.00;99.90;;;;;;5094559;28;20941;-58
2021/12/10 00:44:31;;;;;;;4.60;2.73;;;3.90;99.90;;;;;;5094897;28;20469;-57
2021/12/10 00:46:58;;;;;;;2.97;2.77;;;4.00;99.90;;;;;;5094764;28;20818;-57
2021/12/10 00:49:26;;;;;;;6.10;2.87;;;4.10;99.90;;;;;;5094225;28;20515;-58
2021/12/10 00:51:53;;;;;;;6.03;3.40;;;3.90;99.90;;;;;;5094382;28;21019;-58
2021/12/10 00:54:21;;;;;;;6.30;3.40;;;3.80;99.90;;;;;;5094412;28;20447;-58
2021/12/10 00:56:49;;;;;;;6.37;3.00;;;3.80;99.90;;;;;;5094883;28;20452;-58
2021/12/10 00:59:20;;;;;;;3.03;2.73;;;3.80;99.90;;;;;;5094821;28;20428;-57
2021/12/10 01:01:51;;;;;;;3.43;3.00;;;3.80;99.90;;;;;;5094869;28;20435;-57
2021/12/10 01:04:20;;;;;;;2.97;2.60;;;3.80;99.90;;;;;;5094231;28;20918;-58
2021/12/10 01:06:49;;;;;;;7.73;3.20;;;3.80;99.90;;;;;;5094454;28;20576;-58
2021/12/10 01:09:20;;;;;;;4.83;3.23;;;3.80;99.90;;;;;;5094343;28;20443;-58
2021/12/10 01:11:51;;;;;;;9.00;3.30;;;3.90;99.90;;;;;;5094068;28;20483;-58
2021/12/10 01:14:32;;;;;;;4.00;2.63;;;3.80;99.90;;;;;;5094570;28;20458;-58
2021/12/10 01:25:25;;;;;;;3.57;2.97;;;3.70;99.90;;;;;;5094102;28;20550;-58
2021/12/10 01:27:52;;;;;;;3.00;2.70;;;3.70;99.90;;;;;;5094233;28;20511;-58
2021/12/10 01:30:22;;;;;;;4.57;2.87;;;3.70;99.90;;;;;;5093682;28;20487;-58
2021/12/10 01:32:55;;;;;;;3.83;2.40;;;3.60;99.90;;;;;;5094064;28;20450;-58
2021/12/10 01:35:26;;;;;;;4.77;3.23;;;3.60;99.90;;;;;;5094081;28;20474;-57
2021/12/10 01:37:55;;;;;;;3.47;2.87;;;3.60;99.90;;;;;;5094300;28;20427;-58
2021/12/10 01:40:24;;;;;;;4.00;3.10;;;3.50;99.90;;;;;;5094099;28;20464;-57
2021/12/10 01:42:54;;;;;;;2.47;2.20;;;3.50;99.90;;;;;;5093458;28;20505;-58
2021/12/10 01:45:24;;;;;;;3.53;2.70;;;3.40;99.90;;;;;;5093670;28;20530;-57
2021/12/10 01:47:58;;;;;;;8.40;3.00;;;3.40;99.90;;;;;;5093483;28;20827;-57
2021/12/10 01:50:27;;;;;;;4.47;3.07;;;3.50;99.90;;;;;;5093293;28;21013;-57
2021/12/10 01:53:02;;;;;;;5.17;3.50;;;3.60;99.90;;;;;;5093717;28;20511;-57
2021/12/10 01:55:31;;;;;;;4.50;2.80;;;3.70;99.90;;;;;;5093336;28;20884;-57
2021/12/10 01:58:00;;;;;;;3.17;2.50;;;3.50;99.90;;;;;;5093552;28;20554;-57
2021/12/10 02:00:31;;;;;;;5.47;2.90;;;3.50;99.90;;;;;;5093486;28;20460;-57
2021/12/10 02:03:00;;;;;;;7.63;2.47;;;3.50;99.90;;;;;;5093530;28;20447;-58
2021/12/10 02:05:28;;;;;;;9.70;2.87;;;3.50;99.90;;;;;;5093495;28;20524;-58
2021/12/10 02:07:55;;;;;;;9.00;4.10;;;3.50;99.90;;;;;;5093195;28;20448;-58
2021/12/10 02:10:24;;;;;;;3.03;2.27;;;3.60;99.90;;;;;;5093003;28;20513;-58
2021/12/10 02:12:51;;;;;;;4.33;2.30;;;3.60;99.90;;;;;;5092996;28;20447;-57
2021/12/10 02:15:21;;;;;;;2.50;2.30;;;3.70;99.90;;;;;;5094185;28;20538;-57
2021/12/10 02:17:51;;;;;;;4.23;2.10;;;3.50;99.90;;;;;;5093020;28;20428;-57
2021/12/10 02:20:24;;;;;;;3.50;3.20;;;3.40;99.90;;;;;;5093003;28;20466;-57
2021/12/10 02:22:53;;;;;;;2.93;2.03;;;3.20;99.90;;;;;;5093299;28;20434;-57
2021/12/10 02:25:23;;;;;;;2.93;2.53;;;3.20;99.90;;;;;;5092985;28;20450;-58
2021/12/10 02:27:51;;;;;;;4.53;2.67;;;3.30;99.90;;;;;;5093256;28;20443;-58
2021/12/10 02:30:19;;;;;;;4.23;2.70;;;3.30;99.90;;;;;;5092782;28;20468;-58
2021/12/10 02:32:47;;;;;;;2.97;2.23;;;3.30;99.90;;;;;;5093702;28;20530;-57
2021/12/10 02:35:16;;;;;;;2.70;2.50;;;3.40;99.90;;;;;;5094326;28;20449;-58
2021/12/10 02:37:46;;;;;;;3.90;2.60;;;3.40;99.90;;;;;;5097003;28;20451;-57
2021/12/10 02:40:18;;;;;;;7.93;2.93;;;3.50;99.90;;;;;;5097192;28;20554;-58
2021/12/10 02:42:48;;;;;;;5.20;2.43;;;3.40;99.90;;;;;;5096916;28;20454;-57
2021/12/10 02:45:17;;;;;;;3.63;2.43;;;3.40;99.90;;;;;;5097313;28;20864;-57
2021/12/10 02:47:44;;;;;;;6.00;3.20;;;3.30;99.90;;;;;;5097306;28;20443;-57
2021/12/10 02:50:15;;;;;;;2.40;2.20;;;3.40;99.90;;;;;;5096921;28;20487;-56
2021/12/10 02:52:42;;;;;;;3.33;2.90;;;3.40;99.90;;;;;;5096702;28;20447;-57
2021/12/10 02:55:14;;;;;;;3.93;2.30;;;3.30;99.90;;;;;;5097167;28;20447;-57
2021/12/10 02:57:44;;;;;;;6.23;2.60;;;3.10;99.90;;;;;;5096653;28;20431;-58
2021/12/10 03:00:16;;;;;;;3.30;3.00;;;3.20;99.90;;;;;;5096522;28;21020;-57
2021/12/10 03:02:43;;;;;;;2.70;2.40;;;3.20;99.90;;;;;;5096611;28;20430;-57
2021/12/10 03:05:11;;;;;;;4.40;2.20;;;3.40;99.90;;;;;;5096581;28;20469;-57
2021/12/10 03:07:40;;;;;;;3.97;2.27;;;3.20;99.90;;;;;;5097081;28;20798;-57
2021/12/10 03:10:10;;;;;;;3.30;2.30;;;3.20;99.90;;;;;;5096693;28;20470;-57
2021/12/10 03:12:37;;;;;;;2.80;2.33;;;3.20;99.90;;;;;;5096428;28;20529;-57
2021/12/10 03:15:08;;;;;;;6.13;2.27;;;3.10;99.90;;;;;;5096694;28;20534;-57
2021/12/10 03:17:35;;;;;;;4.23;2.47;;;3.10;99.90;;;;;;5095994;28;20521;-57
2021/12/10 03:20:06;;;;;;;3.50;2.63;;;3.10;99.90;;;;;;5096547;28;20533;-57
2021/12/10 03:22:33;;;;;;;9.97;2.53;;;3.00;99.90;;;;;;5097318;28;20787;-57
2021/12/10 03:25:01;;;;;;;6.13;2.80;;;3.00;99.90;;;;;;5096538;28;20534;-57
2021/12/10 03:27:28;;;;;;;6.03;2.43;;;2.90;99.90;;;;;;5096230;28;20941;-57
2021/12/10 03:29:55;;;;;;;4.20;2.30;;;2.80;99.90;;;;;;5096565;28;20489;-57
2021/12/10 03:32:28;;;;;;;2.67;2.40;;;2.80;99.90;;;;;;5096028;28;20470;-57
2021/12/10 03:34:58;;;;;;;4.53;2.50;;;3.00;99.90;;;;;;5096128;28;20847;-57
2021/12/10 03:37:26;;;;;;;6.00;3.60;;;2.80;99.90;;;;;;5095885;28;20979;-57
2021/12/10 03:39:54;;;;;;;3.30;2.60;;;2.80;99.90;;;;;;5096049;28;20478;-57
2021/12/10 03:42:22;;;;;;;3.00;2.17;;;2.80;99.90;;;;;;5095968;28;20447;-56
2021/12/10 03:44:50;;;;;;;4.27;2.83;;;2.80;99.90;;;;;;5096295;28;20447;-57
2021/12/10 03:47:17;;;;;;;3.70;2.60;;;2.80;99.90;;;;;;5094747;28;20454;-56
2021/12/10 03:49:45;;;;;;;3.43;2.60;;;2.70;99.90;;;;;;5095598;28;20505;-57
2021/12/10 03:52:12;;;;;;;2.80;2.60;;;2.60;99.90;;;;;;5095819;28;20489;-57
2021/12/10 03:54:41;;;;;;;3.47;2.50;;;2.70;99.90;;;;;;5095754;28;20450;-57
2021/12/10 03:57:08;;;;;;;3.77;2.90;;;2.80;99.90;;;;;;5095554;28;20451;-57
2021/12/10 03:59:37;;;;;;;7.03;2.80;;;2.70;99.90;;;;;;5096170;28;20499;-57
2021/12/10 04:02:06;;;;;;;6.23;3.47;;;2.90;99.90;;;;;;5095730;28;20476;-57
2021/12/10 04:04:38;;;;;;;5.10;3.10;;;2.80;99.90;;;;;;5095621;28;20539;-57
2021/12/10 04:07:11;;;;;;;3.30;2.90;;;2.70;99.90;;;;;;5095292;28;20428;-57
2021/12/10 04:09:40;;;;;;;3.80;2.80;;;2.70;99.90;;;;;;5096124;28;20464;-57
2021/12/10 04:12:08;;;;;;;4.53;3.03;;;2.80;99.90;;;;;;5095589;28;20559;-57
2021/12/10 04:14:37;;;;;;;6.73;3.40;;;2.80;99.90;;;;;;5095196;28;20439;-57
2021/12/10 04:17:05;;;;;;;4.47;3.00;;;2.70;99.90;;;;;;5095442;28;20424;-57
2021/12/10 04:19:35;;;;;;;3.90;2.80;;;2.70;99.90;;;;;;5094948;28;20474;-56
2021/12/10 04:22:04;;;;;;;3.80;2.97;;;2.60;99.90;;;;;;5095028;28;20538;-57
2021/12/10 04:24:36;;;;;;;3.70;3.17;;;2.60;99.90;;;;;;5095284;28;20482;-57
2021/12/10 04:27:10;;;;;;;6.53;3.37;;;2.50;99.90;;;;;;5094999;28;20427;-57
2021/12/10 04:29:38;;;;;;;3.73;3.20;;;2.60;99.90;;;;;;5094824;28;20458;-57
2021/12/10 04:32:07;;;;;;;5.83;3.50;;;2.60;99.90;;;;;;5094765;28;20505;-57
2021/12/10 04:34:34;;;;;;;4.77;3.30;;;2.60;99.90;;;;;;5095826;28;20791;-57
2021/12/10 04:37:04;;;;;;;5.13;3.50;;;2.60;99.90;;;;;;5096251;28;20451;-57
2021/12/10 04:39:34;;;;;;;10.37;4.50;;;2.60;99.90;;;;;;5095760;28;20562;-57
2021/12/10 04:42:01;;;;;;;5.07;3.47;;;2.60;99.90;;;;;;5095505;28;20451;-57
2021/12/10 04:44:29;;;;;;;3.40;3.13;;;2.60;99.90;;;;;;5095531;28;20442;-57
2021/12/10 04:46:56;;;;;;;9.00;3.67;;;2.50;99.90;;;;;;5094906;28;20428;-57
2021/12/10 04:49:23;;;;;;;4.20;3.33;;;2.50;99.90;;;;;;5094613;28;20610;-57
2021/12/10 04:51:53;;;;;;;4.23;3.77;;;2.50;99.90;;;;;;5094760;28;20473;-57
2021/12/10 04:54:22;;;;;;;4.47;3.40;;;2.40;99.90;;;;;;5094522;28;20454;-57
2021/12/10 04:56:52;;;;;;;6.73;3.40;;;2.50;99.90;;;;;;5094802;28;20530;-57
2021/12/10 04:59:20;;;;;;;7.27;3.20;;;2.60;99.90;;;;;;5094372;28;20432;-57
2021/12/10 05:01:49;;;;;;;5.40;4.10;;;2.50;99.90;;;;;;5095085;28;20443;-57
2021/12/10 05:04:18;;;;;;;6.27;3.70;;;2.60;99.90;;;;;;5094788;28;20448;-57
2021/12/10 05:06:45;;;;;;;4.90;3.80;;;2.60;99.90;;;;;;5094564;28;20875;-57
2021/12/10 05:09:13;;;;;;;4.00;3.30;;;2.60;99.90;;;;;;5094370;28;20844;-57
2021/12/10 05:11:41;;;;;;;6.30;5.07;;;2.60;99.90;;;;;;5094551;28;20479;-57
2021/12/10 05:14:10;;;;;;;5.00;4.50;;;2.60;99.90;;;;;;5094319;28;20815;-57
2021/12/10 05:16:43;;;;;;;7.30;4.30;;;2.60;99.90;;;;;;5094881;28;20447;-57
2021/12/10 05:19:11;;;;;;;7.50;4.00;;;2.60;99.90;;;;;;5094405;28;20894;-57
2021/12/10 05:21:40;;;;;;;5.33;4.50;;;2.60;99.90;;;;;;5094307;28;20518;-57
2021/12/10 05:24:08;;;;;;;5.27;4.40;;;2.60;99.90;;;;;;5093880;28;20564;-57
2021/12/10 05:26:37;;;;;;;8.03;4.77;;;2.60;99.90;;;;;;5094317;28;20449;-57
2021/12/10 05:29:05;;;;;;;4.80;3.90;;;2.60;99.90;;;;;;5093907;28;20930;-57
2021/12/10 05:31:35;;;;;;;7.77;4.17;;;2.50;99.90;;;;;;5093717;28;21011;-57
2021/12/10 05:34:02;;;;;;;5.30;4.70;;;2.60;99.90;;;;;;5093824;28;20451;-57
2021/12/10 05:36:29;;;;;;;5.37;4.87;;;2.50;99.90;;;;;;5093986;28;20483;-57
2021/12/10 05:38:57;;;;;;;6.43;5.93;;;2.50;99.90;;;;;;5094021;28;20443;-57
2021/12/10 05:41:24;;;;;;;6.77;4.50;;;2.30;99.90;;;;;;5093798;28;20558;-57
2021/12/10 05:43:51;;;;;;;9.40;4.97;;;2.20;99.90;;;;;;5093594;28;20448;-57
2021/12/10 05:46:18;;;;;;;4.80;4.37;;;2.20;99.90;;;;;;5093440;28;20483;-57
2021/12/10 05:48:47;;;;;;;6.60;5.60;;;2.10;99.90;;;;;;5093664;28;20558;-57
2021/12/10 05:51:15;;;;;;;7.87;6.00;;;2.20;99.90;;;;;;5093173;28;20489;-56
2021/12/10 05:53:43;;;;;;;7.43;5.30;;;2.20;99.90;;;;;;5093414;28;20447;-57
2021/12/10 05:56:10;;;;;;;6.83;5.10;;;2.30;99.90;;;;;;5093688;28;20804;-57
2021/12/10 05:58:38;;;;;;;7.50;5.43;;;2.30;99.90;;;;;;5093705;28;20448;-57
2021/12/10 06:01:09;;;;;;;6.23;5.73;;;2.40;99.90;;;;;;5093673;28;20474;-56
2021/12/10 06:03:38;;;;;;;8.53;5.57;;;2.40;99.90;;;;;;5093575;28;20435;-56
2021/12/10 06:06:08;;;;;;;10.23;5.50;;;2.30;99.90;;;;;;5093514;28;20450;-56
2021/12/10 06:08:36;;;;;;;8.60;5.50;;;2.40;99.90;;;;;;5093048;28;20956;-56
2021/12/10 06:11:06;;;;;;;6.17;5.17;;;2.40;99.90;;;;;;5092424;28;20610;-56
2021/12/10 06:13:34;;;;;;;7.50;4.97;;;2.40;99.90;;;;;;5093150;28;20572;-56
2021/12/10 06:16:02;;;;;;;5.50;4.97;;;2.30;99.90;;;;;;5093434;28;20451;-56
2021/12/10 06:18:29;;;;;;;7.50;5.60;;;2.50;99.90;;;;;;5093533;28;20531;-56
2021/12/10 06:20:56;;;;;;;7.30;4.87;;;2.50;99.90;;;;;;5092835;28;20474;-58
2021/12/10 06:23:25;;;;;;;9.70;5.53;;;2.40;99.90;;;;;;5092775;28;20449;-56
2021/12/10 06:25:52;;;;;;;7.73;5.63;;;2.40;99.90;;;;;;5093461;28;20435;-56
2021/12/10 06:28:19;;;;;;;8.33;6.30;;;2.30;99.90;;;;;;5093099;28;20443;-56
2021/12/10 06:30:49;;;;;;;8.40;5.63;;;2.30;99.90;;;;;;5092562;28;20459;-57
2021/12/10 06:33:19;;;;;;;6.43;5.87;;;2.30;99.90;;;;;;5093177;28;20502;-57
2021/12/10 06:35:49;;;;;;;10.60;5.70;;;2.40;99.90;;;;;;5093221;28;20471;-57
2021/12/10 06:38:17;;;;;;;10.03;6.87;;;2.30;99.90;;;;;;5093719;28;20451;-57
2021/12/10 06:40:46;;;;;;;7.33;6.40;;;2.30;99.90;;;;;;5093030;28;20546;-57
2021/12/10 06:43:16;;;;;;;7.10;6.10;;;2.30;99.90;;;;;;5094041;28;20720;-57
2021/12/10 06:45:46;;;;;;;8.43;6.67;;;2.30;99.90;;;;;;5092826;28;20434;-57
2021/12/10 06:48:15;;;;;;;6.33;5.73;;;2.30;99.90;;;;;;5092797;28;20481;-57
2021/12/10 06:50:46;;;;;;;7.10;5.77;;;2.40;99.90;;;;;;5092614;28;20505;-57
2021/12/10 06:53:14;;;;;;;8.87;5.67;;;2.40;99.90;;;;;;5092732;28;20570;-56
2021/12/10 06:55:41;;;;;;;11.17;7.80;;;2.30;99.90;;;;;;5092830;28;20470;-57
2021/12/10 06:58:10;;;;;;;11.30;8.50;;;2.30;99.90;;;;;;5092930;28;20542;-57
2021/12/10 07:00:42;;;;;;;6.67;5.97;;;2.40;99.90;;;;;;5092686;28;20932;-57
2021/12/10 07:03:10;;;;;;;6.57;5.40;;;2.40;99.90;;;;;;5092505;28;20424;-57
2021/12/10 07:05:37;;;;;;;13.53;6.33;;;2.40;99.90;;;;;;5092860;28;20443;-57
2021/12/10 07:08:05;;;;;;;7.20;6.27;;;2.40;99.90;;;;;;5092798;28;20539;-57
2021/12/10 07:10:33;;;;;;;7.77;6.00;;;2.50;99.90;;;;;;5092397;28;21003;-57
2021/12/10 07:13:03;;;;;;;15.07;6.40;;;2.40;99.90;;;;;;5092508;28;20479;-57
2021/12/10 07:15:31;;;;;;;7.40;5.43;;;2.30;99.90;;;;;;5092925;28;20455;-58
2021/12/10 07:17:59;;;;;;;7.40;5.70;;;2.40;99.90;;;;;;5092646;28;20450;-58
2021/12/10 07:20:26;;;;;;;7.00;6.00;;;2.40;99.90;;;;;;5092497;28;20451;-58
2021/12/10 07:22:53;;;;;;;10.50;6.63;;;2.40;99.90;;;;;;5096176;28;20439;-58
2021/12/10 07:25:21;;;;;;;9.73;6.67;;;2.50;99.90;;;;;;5096017;28;20454;-57
2021/12/10 07:27:49;;;;;;;7.80;6.27;;;2.60;99.90;;;;;;5095722;28;20447;-57
2021/12/10 07:30:18;;;;;;;8.13;6.67;;;2.50;99.90;;;;;;5095868;28;20463;-57
2021/12/10 07:32:47;;;;;;;10.73;6.00;;;2.50;99.90;;;;;;5096062;28;20479;-62
2021/12/10 07:35:15;;;;;;;9.43;6.03;;;2.30;99.90;;;;;;5096556;28;20534;-57
2021/12/10 07:37:43;;;;;;;7.40;6.60;;;2.30;99.90;;;;;;5095771;28;20930;-57
2021/12/10 07:40:14;;;;;;;7.03;6.37;;;2.30;99.90;;;;;;5096178;28;20467;-58
2021/12/10 07:42:41;;;;;;;7.80;6.40;;;2.30;99.90;;;;;;5096708;28;20482;-58
2021/12/10 07:45:11;;;;;;;8.30;6.20;;;2.30;99.90;;;;;;5096484;28;20538;-59
2021/12/10 07:47:39;;;;;;;8.70;7.10;;;2.30;99.90;;;;;;5096520;28;20454;-59
2021/12/10 07:50:11;;;;;;;7.63;6.20;;;2.40;99.90;;;;;;5094941;28;20514;-56
2021/12/10 07:52:40;;;;;;;6.57;5.87;;;2.50;99.90;;;;;;5095839;28;20463;-58
2021/12/10 07:55:10;;;;;;;7.70;5.20;;;2.50;99.90;;;;;;5096207;28;20443;-58
2021/12/10 07:57:38;;;;;;;7.00;6.30;;;2.50;99.90;;;;;;5096785;28;20763;-57
2021/12/10 08:00:07;;;;;;;6.33;5.63;;;2.60;99.90;;;;;;5095353;28;20472;-58
2021/12/10 08:02:34;;;;;;;5.73;5.23;;;2.80;99.90;;;;;;5095743;28;20775;-58
2021/12/10 08:05:01;;;;;;;8.90;5.20;;;2.80;99.90;;;;;;5095223;28;20979;-57
2021/12/10 08:07:30;;;;;;;7.93;6.17;;;2.80;99.90;;;;;;5095363;28;20447;-56
2021/12/10 08:09:57;;;;;;;5.57;4.87;;;2.70;99.90;;;;;;5095327;28;20451;-56
2021/12/10 08:12:24;;;;;;;6.43;5.57;;;2.90;99.90;;;;;;5095586;28;20483;-56
2021/12/10 08:14:55;;;;;;;10.83;6.53;;;3.00;99.90;;;;;;5095205;28;20632;-57
2021/12/10 08:17:23;;;;;;;7.70;5.93;;;2.90;99.90;;;;;;5095366;28;20800;-56
2021/12/10 08:19:51;;;;;;;6.10;5.50;;;3.00;99.90;;;;;;5095306;28;20477;-56
2021/12/10 08:22:19;;;;;;;8.20;5.03;;;3.00;99.90;;;;;;5094966;28;20980;-56
2021/12/10 08:24:47;;;;;;;6.07;5.20;;;3.00;99.90;;;;;;5095199;28;20459;-56
2021/12/10 08:27:15;;;;;;;8.07;6.10;;;3.10;99.90;;;;;;5095539;28;20447;-57
2021/12/10 08:29:44;;;;;;;7.23;5.60;;;3.10;99.90;;;;;;5095281;28;20558;-57
2021/12/10 08:32:16;;;;;;;8.80;5.73;;;3.10;99.90;;;;;;5094947;28;20458;-57
2021/12/10 08:34:43;;;;;;;8.63;5.93;;;3.10;99.90;;;;;;5094394;28;20436;-56
2021/12/10 08:37:10;;;;;;;8.50;5.20;;;3.10;99.90;;;;;;5094559;28;20451;-56
2021/12/10 08:39:38;;;;;;;8.20;5.57;;;3.10;99.90;;;;;;5094821;28;20539;-56
2021/12/10 08:42:07;;;;;;;7.10;5.77;;;3.10;99.90;;;;;;5095262;28;20486;-57
2021/12/10 08:44:35;;;;;;;6.30;4.90;;;3.30;99.90;;;;;;5094605;28;20481;-57
2021/12/10 08:47:02;;;;;;;5.70;5.20;;;3.20;99.90;;;;;;5094817;28;20512;-57
2021/12/10 08:49:29;;;;;;;5.97;4.73;;;3.20;99.90;;;;;;5094147;28;20452;-56
2021/12/10 08:51:58;;;;;;;8.27;5.40;;;3.20;99.90;;;;;;5094706;28;20465;-56
2021/12/10 08:54:28;;;;;;;6.50;5.60;;;3.10;99.90;;;;;;5094411;28;20566;-56
2021/12/10 08:56:56;;;;;;;8.57;4.97;;;3.30;99.90;;;;;;5094317;28;20479;-57
2021/12/10 08:59:26;;;;;;;10.30;4.97;;;3.30;99.90;;;;;;5094276;28;20926;-57
2021/12/10 09:01:56;;;;;;;7.93;5.60;;;3.30;99.90;;;;;;5094531;28;20536;-58
2021/12/10 09:04:23;;;;;;;11.80;6.07;;;3.40;99.90;;;;;;5094076;28;20539;-58
2021/12/10 09:06:54;;;;;;;6.57;5.83;;;3.50;99.90;;;;;;5094332;28;20443;-58
2021/12/10 09:09:22;;;;;;;7.83;5.70;;;3.60;99.90;;;;;;5094316;28;20805;-57
2021/12/10 09:11:55;;;;;;;6.10;5.40;;;3.60;99.90;;;;;;5094226;28;20455;-57
2021/12/10 09:14:31;;;;;;;8.63;6.03;;;3.70;99.90;;;;;;5093938;28;20464;-57
2021/12/10 09:17:01;;;;;;;7.97;5.07;;;3.70;99.90;;;;;;5094384;28;20423;-58
2021/12/10 09:19:29;;;;;;;7.63;6.07;;;3.70;99.90;;;;;;5093879;28;20452;-58
2021/12/10 09:21:57;;;;;;;12.83;5.23;;;3.70;99.90;;;;;;5094225;28;20473;-58
2021/12/10 09:24:25;;;;;;;7.20;5.20;;;3.60;99.90;;;;;;5093825;28;20440;-58
2021/12/10 09:26:56;;;;;;;5.43;4.93;;;3.70;99.90;;;;;;5094204;28;20448;-58
2021/12/10 09:29:26;;;;;;;6.37;5.00;;;3.70;99.90;;;;;;5094649;28;20505;-58
2021/12/10 09:31:54;;;;;;;4.13;3.70;;;3.80;99.90;;;;;;5093537;28;20451;-58
2021/12/10 09:34:22;;;;;;;6.80;4.20;;;3.70;99.90;;;;;;5093739;28;20506;-58
2021/12/10 09:36:50;;;;;;;4.93;4.53;;;3.70;99.90;;;;;;5093883;28;20463;-58
2021/12/10 09:39:18;;;;;;;5.13;3.90;;;3.70;99.90;;;;;;5093500;28;20454;-58
2021/12/10 09:41:46;;;;;;;8.00;4.60;;;3.70;99.90;;;;;;5093794;28;20458;-58
2021/12/10 09:44:15;;;;;;;4.13;3.70;;;3.90;99.90;;;;;;5092646;28;20448;-58
2021/12/10 09:46:45;;;;;;;5.50;4.00;;;3.90;99.90;;;;;;5093105;28;20448;-57
2021/12/10 09:49:14;;;;;;;4.57;4.17;;;4.00;99.90;;;;;;5093491;28;20475;-58
2021/12/10 09:51:46;;;;;;;4.37;3.97;;;4.00;99.90;;;;;;5094370;28;20508;-58
2021/12/10 09:54:16;;;;;;;5.07;3.47;;;4.10;99.90;;;;;;5093770;28;20471;-58
2021/12/10 09:56:47;;;;;;;4.00;3.60;;;4.00;99.90;;;;;;5093302;28;20914;-58
2021/12/10 09:59:15;;;;;;;4.50;4.00;;;4.10;99.90;;;;;;5093530;28;20460;-58
2021/12/10 10:01:47;;;;;;;5.50;3.67;;;4.20;99.90;;;;;;5093624;28;20465;-58
2021/12/10 10:04:18;;;;;;;7.83;3.80;;;4.30;99.90;;;;;;5093497;28;20450;-58
2021/12/10 10:06:49;;;;;;;2.87;2.67;;;4.10;99.90;;;;;;5093398;28;20820;-58
2021/12/10 10:09:19;;;;;;;3.67;2.73;;;4.20;99.90;;;;;;5092949;28;20432;-58
2021/12/10 10:11:48;;;;;;;5.93;2.70;;;4.30;99.90;;;;;;5093490;28;20485;-58
2021/12/10 10:14:16;;;;;;;4.50;3.40;;;4.20;98.90;;;;;;5092964;28;20562;-58
2021/12/10 10:16:45;;;;;;;6.30;3.40;;;4.10;99.60;;;;;;5093386;28;20475;-58
2021/12/10 10:19:14;;;;;;;3.43;2.90;;;4.20;99.50;;;;;;5093172;28;20486;-58
2021/12/10 10:21:44;;;;;;;5.60;3.30;;;4.30;99.90;;;;;;5092945;28;20798;-58
2021/12/10 10:24:12;;;;;;;4.50;3.00;;;4.30;99.30;;;;;;5092692;28;20451;-58
2021/12/10 10:26:43;;;;;;;3.13;2.83;;;4.20;99.40;;;;;;5093572;28;20443;-58
2021/12/10 10:29:16;;;;;;;6.17;3.40;;;4.20;99.70;;;;;;5092766;28;20432;-58
2021/12/10 10:31:51;;;;;;;3.90;3.10;;;4.20;98.90;;;;;;5092791;28;20500;-58
2021/12/10 10:34:18;;;;;;;17.37;3.47;;;4.20;99.10;;;;;;5093451;28;20467;-58
2021/12/10 10:36:46;;;;;;;3.60;2.90;;;4.30;99.40;;;;;;5092781;28;20473;-58
2021/12/10 10:39:15;;;;;;;2.77;2.57;;;4.40;99.10;;;;;;5092752;28;20501;-58
2021/12/10 10:41:45;;;;;;;4.67;2.90;;;4.60;99.70;;;;;;5092836;28;20547;-58
2021/12/10 10:44:12;;;;;;;3.83;2.90;;;4.60;99.60;;;;;;5092807;28;20814;-58
2021/12/10 10:46:40;;;;;;;3.83;2.57;;;4.70;98.60;;;;;;5092710;28;20483;-59
2021/12/10 10:49:08;;;;;;;3.90;2.77;;;4.60;97.80;;;;;;5092898;28;20448;-58
2021/12/10 10:51:38;;;;;;;5.40;3.00;;;4.60;98.50;;;;;;5092342;28;20570;-59
2021/12/10 10:54:10;;;;;;;3.60;3.00;;;4.70;98.20;;;;;;5092586;28;20529;-59
2021/12/10 10:56:40;;;;;;;3.80;2.90;;;4.80;97.60;;;;;;5094388;28;20428;-58
2021/12/10 10:59:14;;;;;;;2.60;2.40;;;4.90;97.50;;;;;;5096741;28;20428;-58
2021/12/10 11:01:47;;;;;;;4.00;2.70;;;4.90;96.90;;;;;;5096899;28;20442;-58
2021/12/10 11:04:25;;;;;;;3.10;2.40;;;4.90;96.30;;;;;;5097898;28;20450;-58
2021/12/10 11:06:55;;;;;;;2.53;2.33;;;4.90;96.30;;;;;;5097369;28;20431;-58
2021/12/10 11:09:26;;;;;;;3.13;2.33;;;4.90;96.40;;;;;;5096635;28;20816;-58
2021/12/10 11:11:56;;;;;;;5.00;2.30;;;5.00;96.20;;;;;;5096538;28;20917;-58
2021/12/10 11:14:25;;;;;;;3.77;2.53;;;5.00;96.00;;;;;;5096140;28;20590;-59
2021/12/10 11:16:56;;;;;;;3.30;2.63;;;5.10;95.30;;;;;;5096620;28;20523;-59
2021/12/10 11:19:28;;;;;;;2.87;2.67;;;5.00;94.80;;;;;;5096489;28;20438;-58
2021/12/10 11:21:59;;;;;;;2.73;2.40;;;5.10;94.90;;;;;;5096032;28;20469;-59
2021/12/10 11:24:34;;;;;;;2.57;2.33;;;5.10;94.40;;;;;;5096072;28;20519;-58
2021/12/10 11:27:04;;;;;;;3.33;2.60;;;5.10;95.30;;;;;;5096039;28;20431;-59
2021/12/10 11:29:42;;;;;;;2.90;2.27;;;5.10;95.40;;;;;;5097174;28;20474;-59
2021/12/10 11:32:14;;;;;;;6.23;2.50;;;5.00;94.60;;;;;;5096102;28;20922;-59
2021/12/10 11:34:46;;;;;;;4.77;2.63;;;5.00;94.60;;;;;;5096023;28;20579;-59
2021/12/10 11:37:15;;;;;;;2.60;2.40;;;4.90;93.70;;;;;;5096055;28;20460;-58
2021/12/10 11:39:48;;;;;;;3.47;2.20;;;5.00;94.80;;;;;;5095673;28;20891;-59
2021/12/10 11:42:41;;;;;;;2.43;1.90;;;4.90;95.90;;;;;;5096253;28;20516;-58
2021/12/10 11:45:32;;;;;;;3.33;2.53;;;4.70;96.40;;;;;;5095553;28;20917;-58
2021/12/10 11:48:09;;;;;;;2.87;2.20;;;4.40;97.40;;;;;;5095981;28;20504;-58
2021/12/10 11:50:42;;;;;;;2.00;1.70;;;4.40;98.50;;;;;;5095326;28;20490;-59
2021/12/10 11:53:12;;;;;;;1.57;1.47;;;4.50;99.40;;;;;;5095352;28;20436;-58
2021/12/10 11:55:58;;;;;;;2.00;1.80;;;4.20;99.90;;;;;;5095879;28;20459;-58
2021/12/10 11:58:26;;;;;;;2.80;2.13;;;3.90;99.90;;;;;;5095626;28;20486;-58
2021/12/10 12:00:54;;;;;;;2.90;1.93;;;3.70;99.90;;;;;;5095650;28;21011;-59
2021/12/10 12:03:28;;;;;;;2.10;1.90;;;3.40;99.90;;;;;;5095738;28;20496;-59
2021/12/10 12:05:57;;;;;;;2.33;2.13;;;3.20;99.90;;;;;;5095562;28;20434;-58
2021/12/10 12:08:25;;;;;;;2.40;2.13;;;2.80;99.90;;;;;;5094563;28;20495;-58
2021/12/10 12:10:55;;;;;;;3.47;2.47;;;2.80;99.90;;;;;;5095484;28;20996;-59
2021/12/10 12:13:29;;;;;;;2.00;1.80;;;2.90;99.90;;;;;;5095444;28;20512;-58
2021/12/10 12:16:01;;;;;;;1.90;1.80;;;2.90;99.90;;;;;;5095512;28;20901;-59
2021/12/10 12:18:31;;;;;;;4.50;2.27;;;3.00;99.90;;;;;;5095681;28;20431;-58
2021/12/10 12:21:03;;;;;;;1.77;1.67;;;3.00;99.90;;;;;;5094719;28;20483;-59
2021/12/10 12:26:18;;;;;;;3.50;2.80;;;3.00;99.90;;;;;;5080198;28;20888;-63
2021/12/10 12:28:48;;;;;;;2.33;1.97;;;3.00;99.90;;;;;;5086186;28;20867;-63
2021/12/10 12:31:19;;;;;;;7.50;2.83;;;3.10;99.90;;;;;;5078592;28;20463;-63
2021/12/10 12:33:57;;;;;;;3.00;2.80;;;3.00;99.90;;;;;;5085572;28;20483;-56
2021/12/10 12:36:28;;;;;;;3.00;2.00;;;3.10;99.90;;;;;;5080403;28;20968;-60
2021/12/10 12:38:57;;;;;;;2.30;2.10;;;3.10;99.90;;;;;;5094548;28;20436;-65
2021/12/10 12:41:27;;;;;;;3.10;2.47;;;3.30;99.90;;;;;;5093493;28;20575;-61
2021/12/10 12:44:14;;;;;;;2.60;2.40;;;3.20;99.90;;;;;;5090392;28;20458;-54
2021/12/10 12:47:06;;;;;;;2.77;2.57;;;3.10;99.90;;;;;;5079777;28;20444;-56
2021/12/10 12:49:52;;;;;;;3.53;2.10;;;3.30;99.90;;;;;;5078246;28;20502;-61
2021/12/10 12:52:24;;;;;;;3.30;2.87;;;3.20;99.90;;;;;;5075172;28;20437;-61
2021/12/10 12:55:24;;;;;;;2.97;2.50;;;3.20;99.90;;;;;;5077894;28;20994;-55
2021/12/10 12:57:58;;;;;;;2.67;2.47;;;3.30;99.90;;;;;;5017152;28;20446;-54
2021/12/10 13:00:29;;;;;;;2.83;2.53;;;3.40;99.90;;;;;;5073348;28;20820;-56
2021/12/10 13:02:59;;;;;;;5.00;2.87;;;3.50;99.90;;;;;;5078877;28;20460;-55
2021/12/10 13:05:41;;;;;;;2.80;2.30;;;3.50;99.90;;;;;;5084615;28;20881;-57
2021/12/10 13:08:12;;;;;;;3.47;2.80;;;3.40;99.90;;;;;;5079195;28;20517;-57
2021/12/10 13:10:46;;;;;;;2.70;2.50;;;3.30;99.90;;;;;;5081693;28;21014;-60
2021/12/10 13:13:16;;;;;;;3.13;2.53;;;3.40;99.90;;;;;;5077842;28;20448;-55
2021/12/10 13:15:51;;;;;;;4.60;2.90;;;3.40;99.90;;;;;;5079416;28;20558;-57
2021/12/10 13:18:20;;;;;;;4.10;3.10;;;3.30;99.90;;;;;;5075173;28;20834;-58
2021/12/10 13:20:52;;;;;;;2.90;2.60;;;3.10;99.90;;;;;;5078665;28;20467;-58